sensor_id;sensor_type;location;lat;lon;timestamp;P1;durP1;ratioP1;P2;durP2;ratioP2
75766;SDS011;64378;55.596;13.014;2023-02-28T00:00:30;8.82;;;3.47;;
75766;SDS011;64378;55.596;13.014;2023-02-28T00:02:56;9.85;;;3.45;;
75766;SDS011;64378;55.596;13.014;2023-02-28T00:05:22;11.30;;;3.20;;
75766;SDS011;64378;55.596;13.014;2023-02-28T00:07:48;11.15;;;3.60;;
75766;SDS011;64378;55.596;13.014;2023-02-28T00:10:16;9.52;;;3.42;;
75766;SDS011;64378;55.596;13.014;2023-02-28T00:12:46;9.00;;;3.28;;
75766;SDS011;64378;55.596;13.014;2023-02-28T00:15:12;8.40;;;3.30;;
75766;SDS011;64378;55.596;13.014;2023-02-28T00:17:38;7.83;;;3.10;;
75766;SDS011;64378;55.596;13.014;2023-02-28T00:20:04;7.53;;;2.97;;
75766;SDS011;64378;55.596;13.014;2023-02-28T00:22:35;9.35;;;3.13;;
75766;SDS011;64378;55.596;13.014;2023-02-28T00:25:02;8.23;;;3.10;;
75766;SDS011;64378;55.596;13.014;2023-02-28T00:27:28;8.87;;;3.10;;
75766;SDS011;64378;55.596;13.014;2023-02-28T00:29:54;9.18;;;2.88;;
75766;SDS011;64378;55.596;13.014;2023-02-28T00:32:19;9.77;;;2.83;;
75766;SDS011;64378;55.596;13.014;2023-02-28T00:34:45;9.13;;;3.20;;
75766;SDS011;64378;55.596;13.014;2023-02-28T00:37:10;9.70;;;3.03;;
75766;SDS011;64378;55.596;13.014;2023-02-28T00:39:39;8.93;;;3.00;;
75766;SDS011;64378;55.596;13.014;2023-02-28T00:42:05;6.78;;;2.53;;
75766;SDS011;64378;55.596;13.014;2023-02-28T00:44:31;8.85;;;3.03;;
75766;SDS011;64378;55.596;13.014;2023-02-28T00:46:57;8.10;;;2.88;;
75766;SDS011;64378;55.596;13.014;2023-02-28T00:49:24;7.00;;;2.47;;
75766;SDS011;64378;55.596;13.014;2023-02-28T00:51:50;7.50;;;2.70;;
75766;SDS011;64378;55.596;13.014;2023-02-28T00:54:16;8.03;;;2.73;;
75766;SDS011;64378;55.596;13.014;2023-02-28T00:56:41;7.82;;;2.80;;
75766;SDS011;64378;55.596;13.014;2023-02-28T00:59:07;8.30;;;3.00;;
75766;SDS011;64378;55.596;13.014;2023-02-28T01:01:33;8.70;;;2.60;;
75766;SDS011;64378;55.596;13.014;2023-02-28T01:03:58;7.27;;;2.50;;
75766;SDS011;64378;55.596;13.014;2023-02-28T01:06:23;7.23;;;2.60;;
75766;SDS011;64378;55.596;13.014;2023-02-28T01:08:49;7.70;;;2.40;;
75766;SDS011;64378;55.596;13.014;2023-02-28T01:11:15;8.23;;;2.83;;
75766;SDS011;64378;55.596;13.014;2023-02-28T01:13:42;7.50;;;2.40;;
75766;SDS011;64378;55.596;13.014;2023-02-28T01:16:08;9.00;;;2.90;;
75766;SDS011;64378;55.596;13.014;2023-02-28T01:18:34;6.95;;;2.50;;
75766;SDS011;64378;55.596;13.014;2023-02-28T01:21:07;8.02;;;2.45;;
75766;SDS011;64378;55.596;13.014;2023-02-28T01:23:34;7.88;;;2.60;;
75766;SDS011;64378;55.596;13.014;2023-02-28T01:26:03;7.50;;;2.57;;
75766;SDS011;64378;55.596;13.014;2023-02-28T01:28:32;6.55;;;2.28;;
75766;SDS011;64378;55.596;13.014;2023-02-28T01:30:58;7.50;;;2.60;;
75766;SDS011;64378;55.596;13.014;2023-02-28T01:33:24;9.97;;;3.00;;
75766;SDS011;64378;55.596;13.014;2023-02-28T01:35:56;8.70;;;2.47;;
75766;SDS011;64378;55.596;13.014;2023-02-28T01:38:22;7.75;;;2.45;;
75766;SDS011;64378;55.596;13.014;2023-02-28T01:40:48;7.75;;;2.63;;
75766;SDS011;64378;55.596;13.014;2023-02-28T01:43:20;7.38;;;2.47;;
75766;SDS011;64378;55.596;13.014;2023-02-28T01:45:49;7.32;;;2.15;;
75766;SDS011;64378;55.596;13.014;2023-02-28T01:48:15;7.78;;;2.58;;
75766;SDS011;64378;55.596;13.014;2023-02-28T01:50:42;7.60;;;2.60;;
75766;SDS011;64378;55.596;13.014;2023-02-28T01:53:10;7.28;;;2.30;;
75766;SDS011;64378;55.596;13.014;2023-02-28T01:55:41;7.20;;;2.58;;
75766;SDS011;64378;55.596;13.014;2023-02-28T01:58:09;6.63;;;2.20;;
75766;SDS011;64378;55.596;13.014;2023-02-28T02:00:37;7.43;;;2.37;;
75766;SDS011;64378;55.596;13.014;2023-02-28T02:03:08;6.43;;;1.90;;
75766;SDS011;64378;55.596;13.014;2023-02-28T02:05:36;8.48;;;2.42;;
75766;SDS011;64378;55.596;13.014;2023-02-28T02:08:04;7.43;;;2.20;;
75766;SDS011;64378;55.596;13.014;2023-02-28T02:10:39;7.75;;;2.40;;
75766;SDS011;64378;55.596;13.014;2023-02-28T02:34:55;7.82;;;2.33;;
75766;SDS011;64378;55.596;13.014;2023-02-28T02:39:59;7.53;;;2.50;;
75766;SDS011;64378;55.596;13.014;2023-02-28T02:48:02;7.00;;;2.47;;
75766;SDS011;64378;55.596;13.014;2023-02-28T02:50:33;6.10;;;2.10;;
75766;SDS011;64378;55.596;13.014;2023-02-28T02:53:03;9.85;;;2.53;;
75766;SDS011;64378;55.596;13.014;2023-02-28T02:55:33;6.72;;;2.17;;
75766;SDS011;64378;55.596;13.014;2023-02-28T02:58:03;7.53;;;2.57;;
75766;SDS011;64378;55.596;13.014;2023-02-28T03:00:34;7.22;;;2.28;;
75766;SDS011;64378;55.596;13.014;2023-02-28T03:03:03;7.47;;;2.33;;
75766;SDS011;64378;55.596;13.014;2023-02-28T03:08:31;6.00;;;2.00;;
75766;SDS011;64378;55.596;13.014;2023-02-28T03:11:00;6.85;;;1.92;;
75766;SDS011;64378;55.596;13.014;2023-02-28T03:27:26;5.60;;;1.85;;
75766;SDS011;64378;55.596;13.014;2023-02-28T03:30:00;7.25;;;1.98;;
75766;SDS011;64378;55.596;13.014;2023-02-28T03:32:32;8.80;;;2.00;;
75766;SDS011;64378;55.596;13.014;2023-02-28T03:35:15;6.67;;;2.20;;
75766;SDS011;64378;55.596;13.014;2023-02-28T03:37:47;6.68;;;2.13;;
75766;SDS011;64378;55.596;13.014;2023-02-28T03:40:22;6.40;;;1.90;;
75766;SDS011;64378;55.596;13.014;2023-02-28T03:42:54;5.13;;;1.90;;
75766;SDS011;64378;55.596;13.014;2023-02-28T03:45:33;6.40;;;1.90;;
75766;SDS011;64378;55.596;13.014;2023-02-28T03:48:09;5.40;;;1.87;;
75766;SDS011;64378;55.596;13.014;2023-02-28T03:50:43;5.20;;;1.70;;
75766;SDS011;64378;55.596;13.014;2023-02-28T03:53:14;6.60;;;2.30;;
75766;SDS011;64378;55.596;13.014;2023-02-28T03:55:48;5.70;;;1.80;;
75766;SDS011;64378;55.596;13.014;2023-02-28T03:58:24;6.32;;;1.73;;
75766;SDS011;64378;55.596;13.014;2023-02-28T04:01:03;5.83;;;1.90;;
75766;SDS011;64378;55.596;13.014;2023-02-28T04:03:33;5.30;;;1.73;;
75766;SDS011;64378;55.596;13.014;2023-02-28T04:06:00;4.90;;;1.80;;
75766;SDS011;64378;55.596;13.014;2023-02-28T04:08:25;5.45;;;1.90;;
75766;SDS011;64378;55.596;13.014;2023-02-28T04:10:53;7.30;;;1.97;;
75766;SDS011;64378;55.596;13.014;2023-02-28T04:13:25;5.60;;;1.70;;
75766;SDS011;64378;55.596;13.014;2023-02-28T04:15:50;7.73;;;1.90;;
75766;SDS011;64378;55.596;13.014;2023-02-28T04:18:15;9.20;;;1.90;;
75766;SDS011;64378;55.596;13.014;2023-02-28T04:20:41;5.30;;;2.00;;
75766;SDS011;64378;55.596;13.014;2023-02-28T04:23:06;5.60;;;1.70;;
75766;SDS011;64378;55.596;13.014;2023-02-28T04:25:31;6.20;;;2.05;;
75766;SDS011;64378;55.596;13.014;2023-02-28T04:27:57;5.95;;;1.70;;
75766;SDS011;64378;55.596;13.014;2023-02-28T04:30:25;5.45;;;1.85;;
75766;SDS011;64378;55.596;13.014;2023-02-28T04:32:50;6.27;;;1.90;;
75766;SDS011;64378;55.596;13.014;2023-02-28T04:35:15;6.00;;;1.93;;
75766;SDS011;64378;55.596;13.014;2023-02-28T04:37:41;5.75;;;1.80;;
75766;SDS011;64378;55.596;13.014;2023-02-28T04:40:07;6.17;;;1.90;;
75766;SDS011;64378;55.596;13.014;2023-02-28T04:42:32;6.25;;;1.80;;
75766;SDS011;64378;55.596;13.014;2023-02-28T04:45:03;5.95;;;1.63;;
75766;SDS011;64378;55.596;13.014;2023-02-28T04:47:29;6.22;;;2.40;;
75766;SDS011;64378;55.596;13.014;2023-02-28T04:49:55;5.87;;;1.80;;
75766;SDS011;64378;55.596;13.014;2023-02-28T04:52:20;7.23;;;2.20;;
75766;SDS011;64378;55.596;13.014;2023-02-28T04:54:46;5.57;;;1.70;;
75766;SDS011;64378;55.596;13.014;2023-02-28T04:57:11;5.10;;;1.83;;
75766;SDS011;64378;55.596;13.014;2023-02-28T04:59:36;6.67;;;2.10;;
75766;SDS011;64378;55.596;13.014;2023-02-28T05:02:02;7.82;;;1.92;;
75766;SDS011;64378;55.596;13.014;2023-02-28T05:04:31;5.47;;;1.73;;
75766;SDS011;64378;55.596;13.014;2023-02-28T05:06:59;6.63;;;1.60;;
75766;SDS011;64378;55.596;13.014;2023-02-28T05:09:25;4.82;;;1.63;;
75766;SDS011;64378;55.596;13.014;2023-02-28T05:11:51;5.37;;;1.70;;
75766;SDS011;64378;55.596;13.014;2023-02-28T05:14:16;6.67;;;1.80;;
75766;SDS011;64378;55.596;13.014;2023-02-28T05:16:42;5.32;;;1.65;;
75766;SDS011;64378;55.596;13.014;2023-02-28T05:19:07;5.83;;;1.80;;
75766;SDS011;64378;55.596;13.014;2023-02-28T05:21:34;6.07;;;1.70;;
75766;SDS011;64378;55.596;13.014;2023-02-28T05:24:03;6.70;;;1.77;;
75766;SDS011;64378;55.596;13.014;2023-02-28T05:26:34;5.03;;;1.63;;
75766;SDS011;64378;55.596;13.014;2023-02-28T05:29:01;6.18;;;1.83;;
75766;SDS011;64378;55.596;13.014;2023-02-28T05:31:27;6.30;;;1.90;;
75766;SDS011;64378;55.596;13.014;2023-02-28T05:33:52;5.97;;;1.60;;
75766;SDS011;64378;55.596;13.014;2023-02-28T05:36:18;5.07;;;1.70;;
75766;SDS011;64378;55.596;13.014;2023-02-28T05:38:48;7.67;;;2.20;;
75766;SDS011;64378;55.596;13.014;2023-02-28T05:41:14;4.88;;;1.63;;
75766;SDS011;64378;55.596;13.014;2023-02-28T05:43:40;5.10;;;1.60;;
75766;SDS011;64378;55.596;13.014;2023-02-28T05:46:06;5.67;;;1.80;;
75766;SDS011;64378;55.596;13.014;2023-02-28T05:48:34;5.85;;;1.70;;
75766;SDS011;64378;55.596;13.014;2023-02-28T05:51:01;6.07;;;1.80;;
75766;SDS011;64378;55.596;13.014;2023-02-28T05:53:28;5.32;;;1.77;;
75766;SDS011;64378;55.596;13.014;2023-02-28T05:55:54;6.05;;;1.90;;
75766;SDS011;64378;55.596;13.014;2023-02-28T05:58:20;8.00;;;1.70;;
75766;SDS011;64378;55.596;13.014;2023-02-28T06:00:45;5.40;;;1.65;;
75766;SDS011;64378;55.596;13.014;2023-02-28T06:03:11;5.57;;;1.90;;
75766;SDS011;64378;55.596;13.014;2023-02-28T06:05:37;5.50;;;1.70;;
75766;SDS011;64378;55.596;13.014;2023-02-28T06:08:03;6.85;;;1.77;;
75766;SDS011;64378;55.596;13.014;2023-02-28T06:10:29;5.90;;;1.60;;
75766;SDS011;64378;55.596;13.014;2023-02-28T06:12:54;5.27;;;1.87;;
75766;SDS011;64378;55.596;13.014;2023-02-28T06:15:19;5.57;;;1.80;;
75766;SDS011;64378;55.596;13.014;2023-02-28T06:17:45;5.32;;;1.70;;
75766;SDS011;64378;55.596;13.014;2023-02-28T06:20:12;5.53;;;1.65;;
75766;SDS011;64378;55.596;13.014;2023-02-28T06:22:38;5.80;;;1.70;;
75766;SDS011;64378;55.596;13.014;2023-02-28T06:25:04;5.10;;;1.60;;
75766;SDS011;64378;55.596;13.014;2023-02-28T06:27:32;6.15;;;1.73;;
75766;SDS011;64378;55.596;13.014;2023-02-28T06:29:58;7.73;;;1.90;;
75766;SDS011;64378;55.596;13.014;2023-02-28T06:32:24;5.95;;;1.90;;
75766;SDS011;64378;55.596;13.014;2023-02-28T06:34:50;5.43;;;1.88;;
75766;SDS011;64378;55.596;13.014;2023-02-28T06:37:16;6.10;;;1.80;;
75766;SDS011;64378;55.596;13.014;2023-02-28T06:39:42;5.53;;;1.85;;
75766;SDS011;64378;55.596;13.014;2023-02-28T06:42:08;5.47;;;1.50;;
75766;SDS011;64378;55.596;13.014;2023-02-28T06:44:33;5.20;;;1.67;;
75766;SDS011;64378;55.596;13.014;2023-02-28T06:47:00;5.78;;;1.88;;
75766;SDS011;64378;55.596;13.014;2023-02-28T06:49:28;5.85;;;1.70;;
75766;SDS011;64378;55.596;13.014;2023-02-28T06:51:54;6.45;;;1.95;;
75766;SDS011;64378;55.596;13.014;2023-02-28T06:54:20;5.27;;;1.83;;
75766;SDS011;64378;55.596;13.014;2023-02-28T06:56:45;5.83;;;1.80;;
75766;SDS011;64378;55.596;13.014;2023-02-28T06:59:12;5.50;;;1.80;;
75766;SDS011;64378;55.596;13.014;2023-02-28T07:01:37;6.55;;;1.70;;
75766;SDS011;64378;55.596;13.014;2023-02-28T07:04:04;6.53;;;1.90;;
75766;SDS011;64378;55.596;13.014;2023-02-28T07:06:30;5.45;;;1.85;;
75766;SDS011;64378;55.596;13.014;2023-02-28T07:08:56;6.30;;;1.73;;
75766;SDS011;64378;55.596;13.014;2023-02-28T07:11:23;5.78;;;1.73;;
75766;SDS011;64378;55.596;13.014;2023-02-28T07:13:51;6.03;;;1.73;;
75766;SDS011;64378;55.596;13.014;2023-02-28T07:16:17;5.30;;;1.67;;
75766;SDS011;64378;55.596;13.014;2023-02-28T07:18:43;5.00;;;1.77;;
75766;SDS011;64378;55.596;13.014;2023-02-28T07:21:09;5.93;;;1.70;;
75766;SDS011;64378;55.596;13.014;2023-02-28T07:23:36;6.05;;;1.67;;
75766;SDS011;64378;55.596;13.014;2023-02-28T07:26:03;6.47;;;1.70;;
75766;SDS011;64378;55.596;13.014;2023-02-28T07:28:29;5.95;;;1.40;;
75766;SDS011;64378;55.596;13.014;2023-02-28T07:30:55;6.37;;;1.37;;
75766;SDS011;64378;55.596;13.014;2023-02-28T07:33:20;7.85;;;1.40;;
75766;SDS011;64378;55.596;13.014;2023-02-28T07:35:46;5.80;;;1.30;;
75766;SDS011;64378;55.596;13.014;2023-02-28T07:38:11;4.90;;;1.53;;
75766;SDS011;64378;55.596;13.014;2023-02-28T07:40:38;7.00;;;1.60;;
75766;SDS011;64378;55.596;13.014;2023-02-28T07:43:04;5.50;;;1.50;;
75766;SDS011;64378;55.596;13.014;2023-02-28T07:45:29;6.53;;;1.60;;
75766;SDS011;64378;55.596;13.014;2023-02-28T07:47:59;6.37;;;1.70;;
75766;SDS011;64378;55.596;13.014;2023-02-28T07:50:25;7.88;;;1.83;;
75766;SDS011;64378;55.596;13.014;2023-02-28T07:52:50;6.30;;;2.00;;
75766;SDS011;64378;55.596;13.014;2023-02-28T07:55:16;8.95;;;2.47;;
75766;SDS011;64378;55.596;13.014;2023-02-28T07:57:41;7.90;;;2.80;;
75766;SDS011;64378;55.596;13.014;2023-02-28T08:00:08;7.20;;;2.30;;
75766;SDS011;64378;55.596;13.014;2023-02-28T08:02:35;8.10;;;2.87;;
75766;SDS011;64378;55.596;13.014;2023-02-28T08:05:00;8.13;;;2.90;;
75766;SDS011;64378;55.596;13.014;2023-02-28T08:07:26;8.40;;;3.07;;
75766;SDS011;64378;55.596;13.014;2023-02-28T08:09:52;13.30;;;3.10;;
75766;SDS011;64378;55.596;13.014;2023-02-28T08:12:17;8.23;;;3.20;;
75766;SDS011;64378;55.596;13.014;2023-02-28T08:14:43;8.70;;;3.13;;
75766;SDS011;64378;55.596;13.014;2023-02-28T08:17:09;9.17;;;3.20;;
75766;SDS011;64378;55.596;13.014;2023-02-28T08:19:34;9.35;;;3.33;;
75766;SDS011;64378;55.596;13.014;2023-02-28T08:22:00;10.03;;;3.50;;
75766;SDS011;64378;55.596;13.014;2023-02-28T08:24:25;9.80;;;3.60;;
75766;SDS011;64378;55.596;13.014;2023-02-28T08:26:51;8.00;;;3.30;;
75766;SDS011;64378;55.596;13.014;2023-02-28T08:29:16;10.20;;;3.33;;
75766;SDS011;64378;55.596;13.014;2023-02-28T08:31:41;7.80;;;3.17;;
75766;SDS011;64378;55.596;13.014;2023-02-28T08:34:08;9.17;;;3.17;;
75766;SDS011;64378;55.596;13.014;2023-02-28T08:36:35;11.82;;;3.70;;
75766;SDS011;64378;55.596;13.014;2023-02-28T08:39:01;9.88;;;3.45;;
75766;SDS011;64378;55.596;13.014;2023-02-28T08:41:27;8.37;;;3.23;;
75766;SDS011;64378;55.596;13.014;2023-02-28T08:43:52;7.73;;;3.30;;
75766;SDS011;64378;55.596;13.014;2023-02-28T08:46:18;8.57;;;3.25;;
75766;SDS011;64378;55.596;13.014;2023-02-28T08:48:45;10.05;;;3.75;;
75766;SDS011;64378;55.596;13.014;2023-02-28T08:51:14;8.20;;;3.53;;
75766;SDS011;64378;55.596;13.014;2023-02-28T08:53:43;8.63;;;3.90;;
75766;SDS011;64378;55.596;13.014;2023-02-28T08:56:10;11.07;;;3.63;;
75766;SDS011;64378;55.596;13.014;2023-02-28T08:58:38;8.82;;;3.58;;
75766;SDS011;64378;55.596;13.014;2023-02-28T09:01:07;8.90;;;3.80;;
75766;SDS011;64378;55.596;13.014;2023-02-28T09:03:38;9.10;;;3.57;;
75766;SDS011;64378;55.596;13.014;2023-02-28T09:06:05;8.07;;;3.40;;
75766;SDS011;64378;55.596;13.014;2023-02-28T09:08:31;8.98;;;3.58;;
75766;SDS011;64378;55.596;13.014;2023-02-28T09:10:57;8.53;;;3.47;;
75766;SDS011;64378;55.596;13.014;2023-02-28T09:13:24;9.10;;;3.70;;
75766;SDS011;64378;55.596;13.014;2023-02-28T09:15:50;7.55;;;3.30;;
75766;SDS011;64378;55.596;13.014;2023-02-28T09:18:16;7.87;;;3.30;;
75766;SDS011;64378;55.596;13.014;2023-02-28T09:20:42;9.05;;;3.17;;
75766;SDS011;64378;55.596;13.014;2023-02-28T09:23:09;8.40;;;3.20;;
75766;SDS011;64378;55.596;13.014;2023-02-28T09:25:35;7.50;;;3.10;;
75766;SDS011;64378;55.596;13.014;2023-02-28T09:28:01;6.60;;;2.50;;
75766;SDS011;64378;55.596;13.014;2023-02-28T09:30:27;8.55;;;3.30;;
75766;SDS011;64378;55.596;13.014;2023-02-28T09:32:53;8.32;;;2.83;;
75766;SDS011;64378;55.596;13.014;2023-02-28T09:35:18;7.63;;;2.85;;
75766;SDS011;64378;55.596;13.014;2023-02-28T09:37:49;7.45;;;2.88;;
75766;SDS011;64378;55.596;13.014;2023-02-28T09:40:17;6.50;;;2.70;;
75766;SDS011;64378;55.596;13.014;2023-02-28T09:42:47;7.40;;;2.95;;
75766;SDS011;64378;55.596;13.014;2023-02-28T09:47:49;8.68;;;2.75;;
75766;SDS011;64378;55.596;13.014;2023-02-28T09:52:51;7.80;;;2.72;;
75766;SDS011;64378;55.596;13.014;2023-02-28T09:55:28;8.10;;;2.83;;
75766;SDS011;64378;55.596;13.014;2023-02-28T09:57:58;7.97;;;2.63;;
75766;SDS011;64378;55.596;13.014;2023-02-28T10:11:38;6.53;;;2.53;;
75766;SDS011;64378;55.596;13.014;2023-02-28T10:14:10;6.77;;;2.50;;
75766;SDS011;64378;55.596;13.014;2023-02-28T10:16:43;6.65;;;2.53;;
75766;SDS011;64378;55.596;13.014;2023-02-28T10:19:21;6.95;;;2.20;;
75766;SDS011;64378;55.596;13.014;2023-02-28T10:22:01;7.15;;;2.60;;
75766;SDS011;64378;55.596;13.014;2023-02-28T10:24:47;7.40;;;2.67;;
75766;SDS011;64378;55.596;13.014;2023-02-28T10:27:17;7.15;;;2.38;;
75766;SDS011;64378;55.596;13.014;2023-02-28T10:29:46;7.22;;;2.40;;
75766;SDS011;64378;55.596;13.014;2023-02-28T10:32:16;6.15;;;2.40;;
75766;SDS011;64378;55.596;13.014;2023-02-28T10:34:44;7.00;;;2.50;;
75766;SDS011;64378;55.596;13.014;2023-02-28T10:37:22;5.43;;;2.40;;
75766;SDS011;64378;55.596;13.014;2023-02-28T10:39:48;6.93;;;2.60;;
75766;SDS011;64378;55.596;13.014;2023-02-28T10:42:24;6.40;;;2.40;;
75766;SDS011;64378;55.596;13.014;2023-02-28T10:47:35;7.07;;;2.55;;
75766;SDS011;64378;55.596;13.014;2023-02-28T10:50:30;5.93;;;2.43;;
75766;SDS011;64378;55.596;13.014;2023-02-28T10:59:00;5.88;;;2.17;;
75766;SDS011;64378;55.596;13.014;2023-02-28T11:01:37;6.97;;;2.30;;
75766;SDS011;64378;55.596;13.014;2023-02-28T11:07:18;6.07;;;2.20;;
75766;SDS011;64378;55.596;13.014;2023-02-28T11:09:49;5.53;;;2.17;;
75766;SDS011;64378;55.596;13.014;2023-02-28T11:12:27;4.95;;;2.03;;
75766;SDS011;64378;55.596;13.014;2023-02-28T11:20:49;6.13;;;2.10;;
75766;SDS011;64378;55.596;13.014;2023-02-28T11:23:16;6.00;;;2.20;;
75766;SDS011;64378;55.596;13.014;2023-02-28T11:25:49;6.05;;;2.13;;
75766;SDS011;64378;55.596;13.014;2023-02-28T11:28:35;5.97;;;2.05;;
75766;SDS011;64378;55.596;13.014;2023-02-28T11:31:04;5.88;;;2.13;;
75766;SDS011;64378;55.596;13.014;2023-02-28T11:36:18;5.68;;;2.08;;
75766;SDS011;64378;55.596;13.014;2023-02-28T11:38:49;5.15;;;2.10;;
75766;SDS011;64378;55.596;13.014;2023-02-28T11:44:23;5.63;;;2.10;;
75766;SDS011;64378;55.596;13.014;2023-02-28T11:46:52;5.70;;;2.10;;
75766;SDS011;64378;55.596;13.014;2023-02-28T11:52:37;6.60;;;2.10;;
75766;SDS011;64378;55.596;13.014;2023-02-28T12:01:21;5.20;;;1.70;;
75766;SDS011;64378;55.596;13.014;2023-02-28T12:09:58;5.55;;;1.85;;
75766;SDS011;64378;55.596;13.014;2023-02-28T12:15:23;6.33;;;2.00;;
75766;SDS011;64378;55.596;13.014;2023-02-28T12:18:17;5.07;;;1.88;;
75766;SDS011;64378;55.596;13.014;2023-02-28T12:21:01;5.03;;;1.83;;
75766;SDS011;64378;55.596;13.014;2023-02-28T12:26:38;5.43;;;1.95;;
75766;SDS011;64378;55.596;13.014;2023-02-28T12:29:11;5.75;;;2.10;;
75766;SDS011;64378;55.596;13.014;2023-02-28T12:31:42;5.43;;;1.85;;
75766;SDS011;64378;55.596;13.014;2023-02-28T12:34:31;5.17;;;1.87;;
75766;SDS011;64378;55.596;13.014;2023-02-28T12:37:02;5.75;;;1.90;;
75766;SDS011;64378;55.596;13.014;2023-02-28T12:39:35;4.90;;;1.80;;
75766;SDS011;64378;55.596;13.014;2023-02-28T12:42:11;5.95;;;1.90;;
75766;SDS011;64378;55.596;13.014;2023-02-28T12:44:52;5.82;;;1.70;;
75766;SDS011;64378;55.596;13.014;2023-02-28T12:47:21;5.65;;;1.95;;
75766;SDS011;64378;55.596;13.014;2023-02-28T12:52:28;4.35;;;1.67;;
75766;SDS011;64378;55.596;13.014;2023-02-28T12:55:07;4.85;;;1.90;;
75766;SDS011;64378;55.596;13.014;2023-02-28T12:57:47;4.43;;;1.60;;
75766;SDS011;64378;55.596;13.014;2023-02-28T13:00:17;5.95;;;1.50;;
75766;SDS011;64378;55.596;13.014;2023-02-28T13:11:54;4.60;;;1.63;;
75766;SDS011;64378;55.596;13.014;2023-02-28T13:14:25;5.57;;;1.70;;
75766;SDS011;64378;55.596;13.014;2023-02-28T13:19:32;6.40;;;1.60;;
75766;SDS011;64378;55.596;13.014;2023-02-28T13:21:59;4.03;;;1.60;;
75766;SDS011;64378;55.596;13.014;2023-02-28T13:24:42;5.28;;;1.60;;
75766;SDS011;64378;55.596;13.014;2023-02-28T13:27:11;6.22;;;1.80;;
75766;SDS011;64378;55.596;13.014;2023-02-28T13:29:49;5.18;;;1.55;;
75766;SDS011;64378;55.596;13.014;2023-02-28T13:45:28;4.93;;;1.80;;
75766;SDS011;64378;55.596;13.014;2023-02-28T13:47:41;5.18;;;1.88;;
75766;SDS011;64378;55.596;13.014;2023-02-28T13:55:27;4.78;;;1.60;;
75766;SDS011;64378;55.596;13.014;2023-02-28T14:03:55;5.47;;;1.90;;
75766;SDS011;64378;55.596;13.014;2023-02-28T14:08:57;5.07;;;1.60;;
75766;SDS011;64378;55.596;13.014;2023-02-28T14:11:36;6.32;;;1.95;;
75766;SDS011;64378;55.596;13.014;2023-02-28T14:14:04;6.45;;;1.75;;
75766;SDS011;64378;55.596;13.014;2023-02-28T14:21:38;6.32;;;1.80;;
75766;SDS011;64378;55.596;13.014;2023-02-28T14:29:59;5.20;;;1.60;;
75766;SDS011;64378;55.596;13.014;2023-02-28T14:35:29;4.70;;;1.70;;
75766;SDS011;64378;55.596;13.014;2023-02-28T14:38:13;6.03;;;2.00;;
75766;SDS011;64378;55.596;13.014;2023-02-28T14:40:43;5.63;;;1.90;;
75766;SDS011;64378;55.596;13.014;2023-02-28T14:43:24;5.00;;;1.70;;
75766;SDS011;64378;55.596;13.014;2023-02-28T14:45:55;5.38;;;2.00;;
75766;SDS011;64378;55.596;13.014;2023-02-28T14:48:23;4.68;;;1.70;;
75766;SDS011;64378;55.596;13.014;2023-02-28T14:50:54;5.25;;;1.60;;
75766;SDS011;64378;55.596;13.014;2023-02-28T14:53:22;5.30;;;1.70;;
75766;SDS011;64378;55.596;13.014;2023-02-28T14:55:51;5.37;;;1.77;;
75766;SDS011;64378;55.596;13.014;2023-02-28T15:00:52;4.57;;;1.52;;
75766;SDS011;64378;55.596;13.014;2023-02-28T15:05:57;4.93;;;1.55;;
75766;SDS011;64378;55.596;13.014;2023-02-28T15:08:24;5.47;;;1.50;;
75766;SDS011;64378;55.596;13.014;2023-02-28T15:10:55;5.25;;;1.70;;
75766;SDS011;64378;55.596;13.014;2023-02-28T15:13:25;5.15;;;1.70;;
75766;SDS011;64378;55.596;13.014;2023-02-28T15:16:01;4.23;;;1.57;;
75766;SDS011;64378;55.596;13.014;2023-02-28T15:18:49;4.72;;;1.35;;
75766;SDS011;64378;55.596;13.014;2023-02-28T15:21:21;4.88;;;1.70;;
75766;SDS011;64378;55.596;13.014;2023-02-28T15:23:57;5.47;;;1.80;;
75766;SDS011;64378;55.596;13.014;2023-02-28T15:26:38;4.93;;;1.70;;
75766;SDS011;64378;55.596;13.014;2023-02-28T15:29:13;5.05;;;1.52;;
75766;SDS011;64378;55.596;13.014;2023-02-28T15:31:46;5.57;;;1.80;;
75766;SDS011;64378;55.596;13.014;2023-02-28T15:34:21;5.38;;;1.70;;
75766;SDS011;64378;55.596;13.014;2023-02-28T15:39:55;4.22;;;1.40;;
75766;SDS011;64378;55.596;13.014;2023-02-28T15:42:22;5.55;;;1.70;;
75766;SDS011;64378;55.596;13.014;2023-02-28T15:44:52;6.13;;;1.75;;
75766;SDS011;64378;55.596;13.014;2023-02-28T15:47:19;6.23;;;1.87;;
75766;SDS011;64378;55.596;13.014;2023-02-28T15:49:53;5.30;;;1.50;;
75766;SDS011;64378;55.596;13.014;2023-02-28T15:54:56;5.10;;;1.80;;
75766;SDS011;64378;55.596;13.014;2023-02-28T15:57:27;5.72;;;1.77;;
75766;SDS011;64378;55.596;13.014;2023-02-28T15:59:55;5.32;;;1.73;;
75766;SDS011;64378;55.596;13.014;2023-02-28T16:02:33;5.20;;;1.60;;
75766;SDS011;64378;55.596;13.014;2023-02-28T16:07:31;5.40;;;1.83;;
75766;SDS011;64378;55.596;13.014;2023-02-28T16:09:58;4.97;;;1.77;;
75766;SDS011;64378;55.596;13.014;2023-02-28T16:12:27;5.47;;;2.05;;
75766;SDS011;64378;55.596;13.014;2023-02-28T16:14:55;4.82;;;1.58;;
75766;SDS011;64378;55.596;13.014;2023-02-28T16:17:24;5.78;;;1.85;;
75766;SDS011;64378;55.596;13.014;2023-02-28T16:19:52;5.20;;;1.80;;
75766;SDS011;64378;55.596;13.014;2023-02-28T16:22:22;5.07;;;1.70;;
75766;SDS011;64378;55.596;13.014;2023-02-28T16:24:47;5.43;;;2.03;;
75766;SDS011;64378;55.596;13.014;2023-02-28T16:27:32;5.30;;;1.40;;
75766;SDS011;64378;55.596;13.014;2023-02-28T16:30:01;5.85;;;1.90;;
75766;SDS011;64378;55.596;13.014;2023-02-28T16:32:28;5.22;;;1.70;;
75766;SDS011;64378;55.596;13.014;2023-02-28T16:34:55;5.07;;;1.70;;
75766;SDS011;64378;55.596;13.014;2023-02-28T16:37:21;5.30;;;1.60;;
75766;SDS011;64378;55.596;13.014;2023-02-28T16:39:46;5.13;;;1.80;;
75766;SDS011;64378;55.596;13.014;2023-02-28T16:42:22;4.50;;;1.60;;
75766;SDS011;64378;55.596;13.014;2023-02-28T16:44:50;5.45;;;1.75;;
75766;SDS011;64378;55.596;13.014;2023-02-28T16:47:17;4.35;;;1.38;;
75766;SDS011;64378;55.596;13.014;2023-02-28T16:49:43;4.57;;;1.50;;
75766;SDS011;64378;55.596;13.014;2023-02-28T16:52:09;5.63;;;1.70;;
75766;SDS011;64378;55.596;13.014;2023-02-28T16:54:36;4.60;;;1.67;;
75766;SDS011;64378;55.596;13.014;2023-02-28T16:57:03;6.07;;;1.80;;
75766;SDS011;64378;55.596;13.014;2023-02-28T16:59:29;5.70;;;1.80;;
75766;SDS011;64378;55.596;13.014;2023-02-28T17:01:55;5.90;;;1.80;;
75766;SDS011;64378;55.596;13.014;2023-02-28T17:04:25;5.03;;;1.60;;
75766;SDS011;64378;55.596;13.014;2023-02-28T17:06:51;5.00;;;1.67;;
75766;SDS011;64378;55.596;13.014;2023-02-28T17:09:17;5.05;;;1.77;;
75766;SDS011;64378;55.596;13.014;2023-02-28T17:11:46;4.88;;;1.77;;
75766;SDS011;64378;55.596;13.014;2023-02-28T17:14:12;4.85;;;1.67;;
75766;SDS011;64378;55.596;13.014;2023-02-28T17:16:38;5.03;;;1.73;;
75766;SDS011;64378;55.596;13.014;2023-02-28T17:19:09;5.30;;;1.80;;
75766;SDS011;64378;55.596;13.014;2023-02-28T17:21:37;5.57;;;1.77;;
75766;SDS011;64378;55.596;13.014;2023-02-28T17:24:02;6.20;;;2.00;;
75766;SDS011;64378;55.596;13.014;2023-02-28T17:26:28;5.88;;;1.60;;
75766;SDS011;64378;55.596;13.014;2023-02-28T17:28:54;5.07;;;1.80;;
75766;SDS011;64378;55.596;13.014;2023-02-28T17:31:22;6.20;;;2.17;;
75766;SDS011;64378;55.596;13.014;2023-02-28T17:33:48;6.03;;;1.90;;
75766;SDS011;64378;55.596;13.014;2023-02-28T17:36:14;6.63;;;1.80;;
75766;SDS011;64378;55.596;13.014;2023-02-28T17:38:41;8.70;;;2.20;;